sensor_id;sensor_type;location;lat;lon;timestamp;P1;durP1;ratioP1;P2;durP2;ratioP2
73729;SDS011;62036;48.128;16.458;2024-01-10T00:00:28;28.58;;;13.52;;
73729;SDS011;62036;48.128;16.458;2024-01-10T00:02:54;28.10;;;12.68;;
73729;SDS011;62036;48.128;16.458;2024-01-10T00:05:20;29.45;;;13.77;;
73729;SDS011;62036;48.128;16.458;2024-01-10T00:07:46;25.75;;;13.65;;
73729;SDS011;62036;48.128;16.458;2024-01-10T00:10:13;31.23;;;13.80;;
73729;SDS011;62036;48.128;16.458;2024-01-10T00:12:39;27.65;;;12.98;;
73729;SDS011;62036;48.128;16.458;2024-01-10T00:15:10;33.97;;;13.73;;
73729;SDS011;62036;48.128;16.458;2024-01-10T00:17:36;19.65;;;12.93;;
73729;SDS011;62036;48.128;16.458;2024-01-10T00:20:02;32.53;;;15.35;;
73729;SDS011;62036;48.128;16.458;2024-01-10T00:24:55;22.77;;;10.98;;
73729;SDS011;62036;48.128;16.458;2024-01-10T00:27:21;21.88;;;13.10;;
73729;SDS011;62036;48.128;16.458;2024-01-10T00:29:47;26.75;;;14.52;;
73729;SDS011;62036;48.128;16.458;2024-01-10T00:32:13;23.42;;;12.07;;
73729;SDS011;62036;48.128;16.458;2024-01-10T00:34:39;29.85;;;12.60;;
73729;SDS011;62036;48.128;16.458;2024-01-10T00:37:05;25.23;;;12.25;;
73729;SDS011;62036;48.128;16.458;2024-01-10T00:39:31;28.63;;;11.82;;
73729;SDS011;62036;48.128;16.458;2024-01-10T00:41:57;31.48;;;12.25;;
73729;SDS011;62036;48.128;16.458;2024-01-10T00:44:23;22.67;;;12.75;;
73729;SDS011;62036;48.128;16.458;2024-01-10T00:46:49;32.92;;;15.15;;
73729;SDS011;62036;48.128;16.458;2024-01-10T00:49:15;31.10;;;13.10;;
73729;SDS011;62036;48.128;16.458;2024-01-10T00:51:41;26.10;;;12.60;;
73729;SDS011;62036;48.128;16.458;2024-01-10T00:54:10;21.60;;;11.82;;
73729;SDS011;62036;48.128;16.458;2024-01-10T00:56:36;28.83;;;12.02;;
73729;SDS011;62036;48.128;16.458;2024-01-10T00:59:02;29.65;;;12.40;;
73729;SDS011;62036;48.128;16.458;2024-01-10T01:01:28;23.25;;;10.88;;
73729;SDS011;62036;48.128;16.458;2024-01-10T01:03:55;25.20;;;12.32;;
73729;SDS011;62036;48.128;16.458;2024-01-10T01:06:21;34.28;;;13.63;;
73729;SDS011;62036;48.128;16.458;2024-01-10T01:08:49;28.75;;;13.40;;
73729;SDS011;62036;48.128;16.458;2024-01-10T01:11:15;32.55;;;12.45;;
73729;SDS011;62036;48.128;16.458;2024-01-10T01:13:41;31.00;;;11.82;;
73729;SDS011;62036;48.128;16.458;2024-01-10T01:16:07;30.48;;;14.45;;
73729;SDS011;62036;48.128;16.458;2024-01-10T01:18:34;39.95;;;13.45;;
73729;SDS011;62036;48.128;16.458;2024-01-10T01:21:00;36.50;;;14.07;;
73729;SDS011;62036;48.128;16.458;2024-01-10T01:23:28;29.75;;;13.35;;
73729;SDS011;62036;48.128;16.458;2024-01-10T01:25:54;24.55;;;13.70;;
73729;SDS011;62036;48.128;16.458;2024-01-10T01:28:20;36.90;;;13.02;;
73729;SDS011;62036;48.128;16.458;2024-01-10T01:30:46;26.70;;;12.38;;
73729;SDS011;62036;48.128;16.458;2024-01-10T01:33:12;28.80;;;13.25;;
73729;SDS011;62036;48.128;16.458;2024-01-10T01:35:38;27.38;;;15.60;;
73729;SDS011;62036;48.128;16.458;2024-01-10T01:38:07;26.63;;;12.88;;
73729;SDS011;62036;48.128;16.458;2024-01-10T01:40:34;34.67;;;17.83;;
73729;SDS011;62036;48.128;16.458;2024-01-10T01:43:00;29.48;;;11.98;;
73729;SDS011;62036;48.128;16.458;2024-01-10T01:45:28;29.38;;;14.02;;
73729;SDS011;62036;48.128;16.458;2024-01-10T01:47:54;28.30;;;13.40;;
73729;SDS011;62036;48.128;16.458;2024-01-10T01:50:23;32.00;;;13.90;;
73729;SDS011;62036;48.128;16.458;2024-01-10T01:52:49;28.38;;;13.63;;
73729;SDS011;62036;48.128;16.458;2024-01-10T01:55:16;35.20;;;12.25;;
73729;SDS011;62036;48.128;16.458;2024-01-10T01:57:42;32.80;;;15.32;;
73729;SDS011;62036;48.128;16.458;2024-01-10T02:00:08;32.92;;;14.25;;
73729;SDS011;62036;48.128;16.458;2024-01-10T02:02:35;26.92;;;13.80;;
73729;SDS011;62036;48.128;16.458;2024-01-10T02:07:28;28.75;;;12.07;;
73729;SDS011;62036;48.128;16.458;2024-01-10T02:09:55;27.05;;;12.55;;
73729;SDS011;62036;48.128;16.458;2024-01-10T02:12:21;29.77;;;12.63;;
73729;SDS011;62036;48.128;16.458;2024-01-10T02:14:47;36.15;;;16.92;;
73729;SDS011;62036;48.128;16.458;2024-01-10T02:17:13;26.35;;;12.13;;
73729;SDS011;62036;48.128;16.458;2024-01-10T02:22:06;37.08;;;14.77;;
73729;SDS011;62036;48.128;16.458;2024-01-10T02:24:32;24.85;;;14.70;;
73729;SDS011;62036;48.128;16.458;2024-01-10T02:26:58;33.45;;;12.48;;
73729;SDS011;62036;48.128;16.458;2024-01-10T02:29:24;27.65;;;12.13;;
73729;SDS011;62036;48.128;16.458;2024-01-10T02:31:50;28.33;;;13.50;;
73729;SDS011;62036;48.128;16.458;2024-01-10T02:34:16;32.65;;;16.02;;
73729;SDS011;62036;48.128;16.458;2024-01-10T02:36:42;27.05;;;13.13;;
73729;SDS011;62036;48.128;16.458;2024-01-10T02:39:08;26.40;;;14.88;;
73729;SDS011;62036;48.128;16.458;2024-01-10T02:41:34;29.60;;;16.30;;
73729;SDS011;62036;48.128;16.458;2024-01-10T02:44:00;35.30;;;14.75;;
73729;SDS011;62036;48.128;16.458;2024-01-10T02:46:26;24.23;;;12.65;;
73729;SDS011;62036;48.128;16.458;2024-01-10T02:48:53;29.83;;;13.73;;
73729;SDS011;62036;48.128;16.458;2024-01-10T02:51:20;31.58;;;15.00;;
73729;SDS011;62036;48.128;16.458;2024-01-10T02:53:46;32.90;;;15.65;;
73729;SDS011;62036;48.128;16.458;2024-01-10T02:56:12;29.80;;;13.88;;
73729;SDS011;62036;48.128;16.458;2024-01-10T02:58:38;31.83;;;13.40;;
73729;SDS011;62036;48.128;16.458;2024-01-10T03:01:04;28.83;;;14.52;;
73729;SDS011;62036;48.128;16.458;2024-01-10T03:03:31;35.90;;;17.92;;
73729;SDS011;62036;48.128;16.458;2024-01-10T03:05:57;27.40;;;13.40;;
73729;SDS011;62036;48.128;16.458;2024-01-10T03:08:23;36.75;;;17.50;;
73729;SDS011;62036;48.128;16.458;2024-01-10T03:10:49;30.63;;;13.88;;
73729;SDS011;62036;48.128;16.458;2024-01-10T03:13:15;27.30;;;12.93;;
73729;SDS011;62036;48.128;16.458;2024-01-10T03:15:41;24.58;;;12.88;;
73729;SDS011;62036;48.128;16.458;2024-01-10T03:18:07;39.97;;;15.70;;
73729;SDS011;62036;48.128;16.458;2024-01-10T03:20:33;27.23;;;15.57;;
73729;SDS011;62036;48.128;16.458;2024-01-10T03:22:59;35.90;;;15.40;;
73729;SDS011;62036;48.128;16.458;2024-01-10T03:25:25;43.60;;;16.10;;
73729;SDS011;62036;48.128;16.458;2024-01-10T03:27:51;28.38;;;14.65;;
73729;SDS011;62036;48.128;16.458;2024-01-10T03:30:17;35.47;;;15.25;;
73729;SDS011;62036;48.128;16.458;2024-01-10T03:32:44;33.45;;;14.90;;
73729;SDS011;62036;48.128;16.458;2024-01-10T03:35:10;40.42;;;17.80;;
73729;SDS011;62036;48.128;16.458;2024-01-10T03:37:37;37.83;;;17.00;;
73729;SDS011;62036;48.128;16.458;2024-01-10T03:40:03;43.20;;;15.32;;
73729;SDS011;62036;48.128;16.458;2024-01-10T03:42:29;40.33;;;15.88;;
73729;SDS011;62036;48.128;16.458;2024-01-10T03:44:55;37.78;;;15.93;;
73729;SDS011;62036;48.128;16.458;2024-01-10T03:47:22;41.30;;;14.43;;
73729;SDS011;62036;48.128;16.458;2024-01-10T03:49:48;37.38;;;15.38;;
73729;SDS011;62036;48.128;16.458;2024-01-10T03:52:14;39.95;;;16.17;;
73729;SDS011;62036;48.128;16.458;2024-01-10T03:54:40;34.17;;;17.30;;
73729;SDS011;62036;48.128;16.458;2024-01-10T03:57:06;34.72;;;15.70;;
73729;SDS011;62036;48.128;16.458;2024-01-10T03:59:32;25.63;;;15.65;;
73729;SDS011;62036;48.128;16.458;2024-01-10T04:01:58;32.40;;;14.18;;
73729;SDS011;62036;48.128;16.458;2024-01-10T04:04:25;28.75;;;15.20;;
73729;SDS011;62036;48.128;16.458;2024-01-10T04:06:52;32.42;;;17.10;;
73729;SDS011;62036;48.128;16.458;2024-01-10T04:09:18;43.92;;;17.17;;
73729;SDS011;62036;48.128;16.458;2024-01-10T04:11:44;31.85;;;17.30;;
73729;SDS011;62036;48.128;16.458;2024-01-10T04:14:10;39.88;;;15.77;;
73729;SDS011;62036;48.128;16.458;2024-01-10T04:19:02;29.65;;;15.45;;
73729;SDS011;62036;48.128;16.458;2024-01-10T04:21:28;35.88;;;17.00;;
73729;SDS011;62036;48.128;16.458;2024-01-10T04:23:55;37.28;;;17.33;;
73729;SDS011;62036;48.128;16.458;2024-01-10T04:26:21;32.00;;;14.18;;
73729;SDS011;62036;48.128;16.458;2024-01-10T04:28:47;32.03;;;18.58;;
73729;SDS011;62036;48.128;16.458;2024-01-10T04:31:13;37.40;;;17.38;;
73729;SDS011;62036;48.128;16.458;2024-01-10T04:33:39;33.72;;;16.15;;
73729;SDS011;62036;48.128;16.458;2024-01-10T04:36:05;38.72;;;18.20;;
73729;SDS011;62036;48.128;16.458;2024-01-10T04:38:31;31.75;;;15.43;;
73729;SDS011;62036;48.128;16.458;2024-01-10T04:40:57;42.42;;;15.82;;
73729;SDS011;62036;48.128;16.458;2024-01-10T04:43:23;36.33;;;18.17;;
73729;SDS011;62036;48.128;16.458;2024-01-10T04:45:49;43.45;;;19.58;;
73729;SDS011;62036;48.128;16.458;2024-01-10T04:48:16;32.20;;;14.88;;
73729;SDS011;62036;48.128;16.458;2024-01-10T04:50:42;32.08;;;16.13;;
73729;SDS011;62036;48.128;16.458;2024-01-10T04:53:08;34.88;;;17.38;;
73729;SDS011;62036;48.128;16.458;2024-01-10T04:55:34;28.50;;;13.38;;
73729;SDS011;62036;48.128;16.458;2024-01-10T04:58:00;42.38;;;16.92;;
73729;SDS011;62036;48.128;16.458;2024-01-10T05:00:26;27.35;;;13.05;;
73729;SDS011;62036;48.128;16.458;2024-01-10T05:02:53;31.42;;;16.88;;
73729;SDS011;62036;48.128;16.458;2024-01-10T05:05:19;40.38;;;16.52;;
73729;SDS011;62036;48.128;16.458;2024-01-10T05:07:48;34.67;;;15.18;;
73729;SDS011;62036;48.128;16.458;2024-01-10T05:10:15;35.55;;;18.30;;
73729;SDS011;62036;48.128;16.458;2024-01-10T05:12:41;36.17;;;18.08;;
73729;SDS011;62036;48.128;16.458;2024-01-10T05:15:07;30.40;;;14.10;;
73729;SDS011;62036;48.128;16.458;2024-01-10T05:17:33;38.25;;;17.05;;
73729;SDS011;62036;48.128;16.458;2024-01-10T05:19:59;31.95;;;16.05;;
73729;SDS011;62036;48.128;16.458;2024-01-10T05:22:26;37.80;;;17.33;;
73729;SDS011;62036;48.128;16.458;2024-01-10T05:24:52;38.67;;;16.58;;
73729;SDS011;62036;48.128;16.458;2024-01-10T05:27:18;34.25;;;15.10;;
73729;SDS011;62036;48.128;16.458;2024-01-10T05:29:44;36.90;;;14.82;;
73729;SDS011;62036;48.128;16.458;2024-01-10T05:32:12;27.20;;;13.18;;
73729;SDS011;62036;48.128;16.458;2024-01-10T05:34:38;36.42;;;17.00;;
73729;SDS011;62036;48.128;16.458;2024-01-10T05:37:04;28.05;;;15.27;;
73729;SDS011;62036;48.128;16.458;2024-01-10T05:39:30;31.33;;;14.88;;
73729;SDS011;62036;48.128;16.458;2024-01-10T05:41:56;32.17;;;15.07;;
73729;SDS011;62036;48.128;16.458;2024-01-10T05:44:22;38.13;;;17.70;;
73729;SDS011;62036;48.128;16.458;2024-01-10T05:46:48;42.65;;;16.33;;
73729;SDS011;62036;48.128;16.458;2024-01-10T05:49:14;35.15;;;15.38;;
73729;SDS011;62036;48.128;16.458;2024-01-10T05:51:40;34.15;;;15.95;;
73729;SDS011;62036;48.128;16.458;2024-01-10T05:54:06;36.67;;;15.85;;
73729;SDS011;62036;48.128;16.458;2024-01-10T05:56:32;43.75;;;16.75;;
73729;SDS011;62036;48.128;16.458;2024-01-10T05:58:58;35.13;;;15.98;;
73729;SDS011;62036;48.128;16.458;2024-01-10T06:01:24;40.15;;;18.98;;
73729;SDS011;62036;48.128;16.458;2024-01-10T06:03:50;33.38;;;17.67;;
73729;SDS011;62036;48.128;16.458;2024-01-10T06:06:16;32.25;;;17.00;;
73729;SDS011;62036;48.128;16.458;2024-01-10T06:08:42;37.83;;;18.63;;
73729;SDS011;62036;48.128;16.458;2024-01-10T06:11:08;39.75;;;17.05;;
73729;SDS011;62036;48.128;16.458;2024-01-10T06:13:35;36.65;;;19.08;;
73729;SDS011;62036;48.128;16.458;2024-01-10T06:16:04;37.42;;;19.65;;
73729;SDS011;62036;48.128;16.458;2024-01-10T06:18:30;33.47;;;14.43;;
73729;SDS011;62036;48.128;16.458;2024-01-10T06:23:51;28.95;;;16.33;;
73729;SDS011;62036;48.128;16.458;2024-01-10T06:26:17;32.58;;;15.57;;
73729;SDS011;62036;48.128;16.458;2024-01-10T06:28:43;33.83;;;17.20;;
73729;SDS011;62036;48.128;16.458;2024-01-10T06:31:09;33.15;;;16.83;;
73729;SDS011;62036;48.128;16.458;2024-01-10T06:33:38;29.45;;;13.32;;
73729;SDS011;62036;48.128;16.458;2024-01-10T06:36:05;36.65;;;15.25;;
73729;SDS011;62036;48.128;16.458;2024-01-10T06:38:31;30.60;;;15.65;;
73729;SDS011;62036;48.128;16.458;2024-01-10T06:40:57;34.83;;;14.70;;
73729;SDS011;62036;48.128;16.458;2024-01-10T06:43:23;36.83;;;17.08;;
73729;SDS011;62036;48.128;16.458;2024-01-10T06:45:49;32.17;;;14.27;;
73729;SDS011;62036;48.128;16.458;2024-01-10T06:48:15;30.95;;;13.90;;
73729;SDS011;62036;48.128;16.458;2024-01-10T06:50:41;32.10;;;15.45;;
73729;SDS011;62036;48.128;16.458;2024-01-10T06:53:09;49.28;;;19.85;;
73729;SDS011;62036;48.128;16.458;2024-01-10T06:55:35;35.42;;;16.65;;
73729;SDS011;62036;48.128;16.458;2024-01-10T06:58:01;27.83;;;14.15;;
73729;SDS011;62036;48.128;16.458;2024-01-10T07:00:28;47.33;;;17.88;;
73729;SDS011;62036;48.128;16.458;2024-01-10T07:02:54;41.85;;;17.75;;
73729;SDS011;62036;48.128;16.458;2024-01-10T07:05:20;32.88;;;15.05;;
73729;SDS011;62036;48.128;16.458;2024-01-10T07:07:46;35.50;;;18.08;;
73729;SDS011;62036;48.128;16.458;2024-01-10T07:10:12;36.13;;;15.55;;
73729;SDS011;62036;48.128;16.458;2024-01-10T07:12:38;36.47;;;15.90;;
73729;SDS011;62036;48.128;16.458;2024-01-10T07:15:04;45.83;;;19.15;;
73729;SDS011;62036;48.128;16.458;2024-01-10T07:17:30;35.60;;;16.10;;
73729;SDS011;62036;48.128;16.458;2024-01-10T07:19:56;45.72;;;18.60;;
73729;SDS011;62036;48.128;16.458;2024-01-10T07:22:23;31.27;;;16.23;;
73729;SDS011;62036;48.128;16.458;2024-01-10T07:24:49;35.00;;;15.23;;
73729;SDS011;62036;48.128;16.458;2024-01-10T07:27:15;43.08;;;17.08;;
73729;SDS011;62036;48.128;16.458;2024-01-10T07:29:41;42.67;;;19.70;;
73729;SDS011;62036;48.128;16.458;2024-01-10T07:32:13;31.00;;;15.98;;
73729;SDS011;62036;48.128;16.458;2024-01-10T07:34:41;31.58;;;15.63;;
73729;SDS011;62036;48.128;16.458;2024-01-10T07:37:09;31.45;;;14.45;;
73729;SDS011;62036;48.128;16.458;2024-01-10T07:39:36;31.77;;;15.95;;
73729;SDS011;62036;48.128;16.458;2024-01-10T07:44:28;30.77;;;13.75;;
73729;SDS011;62036;48.128;16.458;2024-01-10T07:46:54;37.03;;;16.48;;
73729;SDS011;62036;48.128;16.458;2024-01-10T07:49:23;36.78;;;17.00;;
73729;SDS011;62036;48.128;16.458;2024-01-10T07:51:50;39.58;;;18.40;;
73729;SDS011;62036;48.128;16.458;2024-01-10T07:54:16;41.63;;;20.05;;
73729;SDS011;62036;48.128;16.458;2024-01-10T07:56:42;41.20;;;20.40;;
73729;SDS011;62036;48.128;16.458;2024-01-10T07:59:11;37.83;;;17.83;;
73729;SDS011;62036;48.128;16.458;2024-01-10T08:01:40;48.83;;;22.13;;
73729;SDS011;62036;48.128;16.458;2024-01-10T08:04:06;45.13;;;21.42;;
73729;SDS011;62036;48.128;16.458;2024-01-10T08:06:32;45.65;;;20.20;;
73729;SDS011;62036;48.128;16.458;2024-01-10T08:09:00;41.97;;;20.85;;
73729;SDS011;62036;48.128;16.458;2024-01-10T08:11:29;38.00;;;19.70;;
73729;SDS011;62036;48.128;16.458;2024-01-10T08:13:55;40.13;;;19.98;;
73729;SDS011;62036;48.128;16.458;2024-01-10T08:16:21;46.78;;;24.83;;
73729;SDS011;62036;48.128;16.458;2024-01-10T08:18:47;53.53;;;22.40;;
73729;SDS011;62036;48.128;16.458;2024-01-10T08:21:13;49.33;;;21.40;;
73729;SDS011;62036;48.128;16.458;2024-01-10T08:23:39;43.13;;;18.20;;
73729;SDS011;62036;48.128;16.458;2024-01-10T08:26:08;43.97;;;21.30;;
73729;SDS011;62036;48.128;16.458;2024-01-10T08:28:37;40.35;;;20.80;;
73729;SDS011;62036;48.128;16.458;2024-01-10T08:34:01;44.03;;;21.00;;
73729;SDS011;62036;48.128;16.458;2024-01-10T08:36:36;36.85;;;20.73;;
73729;SDS011;62036;48.128;16.458;2024-01-10T08:39:03;40.35;;;17.80;;
73729;SDS011;62036;48.128;16.458;2024-01-10T08:41:29;37.38;;;18.48;;
73729;SDS011;62036;48.128;16.458;2024-01-10T08:43:55;42.90;;;20.27;;
73729;SDS011;62036;48.128;16.458;2024-01-10T08:48:49;39.08;;;17.10;;
73729;SDS011;62036;48.128;16.458;2024-01-10T08:51:15;41.88;;;16.85;;
73729;SDS011;62036;48.128;16.458;2024-01-10T08:53:42;38.10;;;18.88;;
73729;SDS011;62036;48.128;16.458;2024-01-10T08:56:26;42.33;;;16.02;;
73729;SDS011;62036;48.128;16.458;2024-01-10T08:58:52;36.53;;;19.90;;
73729;SDS011;62036;48.128;16.458;2024-01-10T09:01:18;43.97;;;17.95;;
73729;SDS011;62036;48.128;16.458;2024-01-10T09:03:45;40.30;;;20.50;;
73729;SDS011;62036;48.128;16.458;2024-01-10T09:06:12;37.28;;;17.38;;
73729;SDS011;62036;48.128;16.458;2024-01-10T09:08:38;39.17;;;16.27;;
73729;SDS011;62036;48.128;16.458;2024-01-10T09:11:04;43.45;;;18.45;;
73729;SDS011;62036;48.128;16.458;2024-01-10T09:13:31;44.95;;;18.52;;
73729;SDS011;62036;48.128;16.458;2024-01-10T09:18:23;33.25;;;18.20;;
73729;SDS011;62036;48.128;16.458;2024-01-10T09:20:49;41.03;;;18.50;;
73729;SDS011;62036;48.128;16.458;2024-01-10T09:23:15;32.63;;;18.38;;
73729;SDS011;62036;48.128;16.458;2024-01-10T09:25:41;40.38;;;17.67;;
73729;SDS011;62036;48.128;16.458;2024-01-10T09:28:10;37.45;;;18.35;;
73729;SDS011;62036;48.128;16.458;2024-01-10T09:30:36;46.67;;;20.08;;
73729;SDS011;62036;48.128;16.458;2024-01-10T09:33:02;33.75;;;18.65;;
73729;SDS011;62036;48.128;16.458;2024-01-10T09:35:28;41.00;;;17.98;;
73729;SDS011;62036;48.128;16.458;2024-01-10T09:37:54;41.63;;;19.45;;
73729;SDS011;62036;48.128;16.458;2024-01-10T09:40:20;42.30;;;17.85;;
73729;SDS011;62036;48.128;16.458;2024-01-10T09:42:48;42.60;;;20.15;;
73729;SDS011;62036;48.128;16.458;2024-01-10T09:45:16;30.85;;;15.55;;
73729;SDS011;62036;48.128;16.458;2024-01-10T09:47:43;38.05;;;17.80;;
73729;SDS011;62036;48.128;16.458;2024-01-10T09:50:10;37.17;;;19.63;;
73729;SDS011;62036;48.128;16.458;2024-01-10T09:55:35;46.30;;;18.25;;
73729;SDS011;62036;48.128;16.458;2024-01-10T09:58:04;46.65;;;21.80;;
73729;SDS011;62036;48.128;16.458;2024-01-10T10:00:31;37.55;;;18.55;;
73729;SDS011;62036;48.128;16.458;2024-01-10T10:02:59;43.47;;;18.42;;
73729;SDS011;62036;48.128;16.458;2024-01-10T10:05:26;37.78;;;17.85;;
73729;SDS011;62036;48.128;16.458;2024-01-10T10:07:53;39.90;;;18.92;;
73729;SDS011;62036;48.128;16.458;2024-01-10T10:10:24;44.10;;;19.95;;
73729;SDS011;62036;48.128;16.458;2024-01-10T10:12:59;50.53;;;21.67;;
73729;SDS011;62036;48.128;16.458;2024-01-10T10:15:38;47.17;;;20.40;;
73729;SDS011;62036;48.128;16.458;2024-01-10T10:18:04;45.15;;;20.08;;
73729;SDS011;62036;48.128;16.458;2024-01-10T10:20:31;45.05;;;19.70;;
73729;SDS011;62036;48.128;16.458;2024-01-10T10:23:04;39.42;;;17.35;;
73729;SDS011;62036;48.128;16.458;2024-01-10T10:25:32;49.58;;;20.10;;
73729;SDS011;62036;48.128;16.458;2024-01-10T10:28:01;42.10;;;18.35;;
73729;SDS011;62036;48.128;16.458;2024-01-10T10:30:28;35.35;;;15.52;;
73729;SDS011;62036;48.128;16.458;2024-01-10T10:32:54;31.60;;;12.93;;
73729;SDS011;62036;48.128;16.458;2024-01-10T10:35:21;28.30;;;14.13;;
73729;SDS011;62036;48.128;16.458;2024-01-10T10:37:51;24.60;;;12.07;;
73729;SDS011;62036;48.128;16.458;2024-01-10T10:40:17;25.65;;;12.75;;
73729;SDS011;62036;48.128;16.458;2024-01-10T10:42:47;29.50;;;13.10;;
73729;SDS011;62036;48.128;16.458;2024-01-10T10:45:17;27.25;;;13.43;;
73729;SDS011;62036;48.128;16.458;2024-01-10T10:47:44;27.48;;;14.30;;
73729;SDS011;62036;48.128;16.458;2024-01-10T10:50:33;26.63;;;12.13;;
73729;SDS011;62036;48.128;16.458;2024-01-10T10:52:57;21.25;;;11.35;;
73729;SDS011;62036;48.128;16.458;2024-01-10T10:55:24;34.20;;;13.00;;
73729;SDS011;62036;48.128;16.458;2024-01-10T10:57:52;27.10;;;13.55;;
73729;SDS011;62036;48.128;16.458;2024-01-10T11:00:19;23.08;;;10.48;;
73729;SDS011;62036;48.128;16.458;2024-01-10T11:02:46;26.67;;;11.35;;
73729;SDS011;62036;48.128;16.458;2024-01-10T11:05:12;32.03;;;12.90;;
73729;SDS011;62036;48.128;16.458;2024-01-10T11:07:39;30.65;;;11.50;;
73729;SDS011;62036;48.128;16.458;2024-01-10T11:10:08;27.75;;;14.07;;
73729;SDS011;62036;48.128;16.458;2024-01-10T11:12:54;28.63;;;12.52;;
73729;SDS011;62036;48.128;16.458;2024-01-10T11:18:09;20.13;;;9.38;;
73729;SDS011;62036;48.128;16.458;2024-01-10T11:25:58;19.30;;;9.68;;
73729;SDS011;62036;48.128;16.458;2024-01-10T11:28:29;22.02;;;9.05;;
73729;SDS011;62036;48.128;16.458;2024-01-10T11:30:55;22.65;;;9.95;;
73729;SDS011;62036;48.128;16.458;2024-01-10T11:36:05;22.55;;;10.20;;
73729;SDS011;62036;48.128;16.458;2024-01-10T11:38:32;19.00;;;8.85;;
73729;SDS011;62036;48.128;16.458;2024-01-10T11:40:58;19.15;;;10.10;;
73729;SDS011;62036;48.128;16.458;2024-01-10T11:43:24;18.92;;;10.98;;
73729;SDS011;62036;48.128;16.458;2024-01-10T11:45:56;21.13;;;11.40;;
73729;SDS011;62036;48.128;16.458;2024-01-10T11:48:26;20.27;;;10.15;;
73729;SDS011;62036;48.128;16.458;2024-01-10T11:50:56;19.30;;;9.18;;
73729;SDS011;62036;48.128;16.458;2024-01-10T11:56:13;26.35;;;11.35;;
73729;SDS011;62036;48.128;16.458;2024-01-10T12:01:25;27.10;;;12.18;;
73729;SDS011;62036;48.128;16.458;2024-01-10T12:03:53;23.13;;;12.65;;
73729;SDS011;62036;48.128;16.458;2024-01-10T12:06:20;25.77;;;11.93;;
73729;SDS011;62036;48.128;16.458;2024-01-10T12:08:46;22.92;;;11.30;;
73729;SDS011;62036;48.128;16.458;2024-01-10T12:13:38;11.27;;;6.45;;
73729;SDS011;62036;48.128;16.458;2024-01-10T12:16:05;27.38;;;11.65;;
73729;SDS011;62036;48.128;16.458;2024-01-10T12:18:31;22.85;;;10.57;;
73729;SDS011;62036;48.128;16.458;2024-01-10T12:23:23;21.83;;;11.27;;
73729;SDS011;62036;48.128;16.458;2024-01-10T12:25:49;24.80;;;11.27;;
73729;SDS011;62036;48.128;16.458;2024-01-10T12:28:16;29.98;;;13.27;;
73729;SDS011;62036;48.128;16.458;2024-01-10T12:30:42;27.00;;;13.15;;
73729;SDS011;62036;48.128;16.458;2024-01-10T12:33:09;24.55;;;12.20;;
73729;SDS011;62036;48.128;16.458;2024-01-10T12:35:35;30.48;;;11.90;;
73729;SDS011;62036;48.128;16.458;2024-01-10T12:38:02;27.00;;;11.95;;
73729;SDS011;62036;48.128;16.458;2024-01-10T12:40:28;30.77;;;12.52;;
73729;SDS011;62036;48.128;16.458;2024-01-10T12:45:23;21.17;;;11.20;;
73729;SDS011;62036;48.128;16.458;2024-01-10T12:47:50;20.13;;;9.60;;
73729;SDS011;62036;48.128;16.458;2024-01-10T12:50:19;21.48;;;11.27;;
73729;SDS011;62036;48.128;16.458;2024-01-10T12:58:04;19.20;;;10.07;;
73729;SDS011;62036;48.128;16.458;2024-01-10T13:00:30;29.20;;;12.18;;
73729;SDS011;62036;48.128;16.458;2024-01-10T13:02:59;25.83;;;12.05;;
73729;SDS011;62036;48.128;16.458;2024-01-10T13:05:31;27.38;;;12.27;;
73729;SDS011;62036;48.128;16.458;2024-01-10T13:10:48;24.77;;;13.38;;
73729;SDS011;62036;48.128;16.458;2024-01-10T13:15:40;28.30;;;12.07;;
73729;SDS011;62036;48.128;16.458;2024-01-10T13:18:13;23.75;;;11.80;;
73729;SDS011;62036;48.128;16.458;2024-01-10T13:20:40;23.63;;;11.48;;
73729;SDS011;62036;48.128;16.458;2024-01-10T13:23:08;30.45;;;12.27;;
73729;SDS011;62036;48.128;16.458;2024-01-10T13:25:35;26.88;;;11.55;;
73729;SDS011;62036;48.128;16.458;2024-01-10T13:28:02;21.27;;;10.30;;
73729;SDS011;62036;48.128;16.458;2024-01-10T13:30:28;20.55;;;9.40;;
73729;SDS011;62036;48.128;16.458;2024-01-10T13:35:20;16.58;;;8.32;;
73729;SDS011;62036;48.128;16.458;2024-01-10T13:37:47;7.32;;;5.07;;
73729;SDS011;62036;48.128;16.458;2024-01-10T13:40:13;20.42;;;9.23;;
73729;SDS011;62036;48.128;16.458;2024-01-10T13:42:40;17.38;;;8.82;;
73729;SDS011;62036;48.128;16.458;2024-01-10T13:45:06;22.42;;;12.07;;
73729;SDS011;62036;48.128;16.458;2024-01-10T13:50:04;19.38;;;10.10;;
73729;SDS011;62036;48.128;16.458;2024-01-10T13:52:31;19.98;;;9.90;;
73729;SDS011;62036;48.128;16.458;2024-01-10T13:54:57;13.48;;;8.43;;
73729;SDS011;62036;48.128;16.458;2024-01-10T13:59:49;27.27;;;9.68;;
73729;SDS011;62036;48.128;16.458;2024-01-10T14:04:43;20.23;;;8.55;;
73729;SDS011;62036;48.128;16.458;2024-01-10T14:07:10;17.63;;;7.28;;
73729;SDS011;62036;48.128;16.458;2024-01-10T14:09:36;11.10;;;7.30;;
73729;SDS011;62036;48.128;16.458;2024-01-10T14:12:02;24.05;;;10.10;;
73729;SDS011;62036;48.128;16.458;2024-01-10T14:14:28;20.88;;;9.18;;
73729;SDS011;62036;48.128;16.458;2024-01-10T14:19:20;12.68;;;6.65;;
73729;SDS011;62036;48.128;16.458;2024-01-10T14:24:12;12.23;;;7.20;;
73729;SDS011;62036;48.128;16.458;2024-01-10T14:29:04;19.45;;;8.30;;
73729;SDS011;62036;48.128;16.458;2024-01-10T14:31:30;20.35;;;8.85;;
73729;SDS011;62036;48.128;16.458;2024-01-10T14:36:22;21.85;;;9.77;;
73729;SDS011;62036;48.128;16.458;2024-01-10T14:41:15;15.65;;;8.77;;
73729;SDS011;62036;48.128;16.458;2024-01-10T14:46:07;20.30;;;9.05;;
73729;SDS011;62036;48.128;16.458;2024-01-10T14:48:33;26.92;;;9.95;;
73729;SDS011;62036;48.128;16.458;2024-01-10T14:50:59;17.23;;;8.90;;
73729;SDS011;62036;48.128;16.458;2024-01-10T14:53:26;18.33;;;7.85;;
73729;SDS011;62036;48.128;16.458;2024-01-10T14:55:52;16.92;;;8.43;;
73729;SDS011;62036;48.128;16.458;2024-01-10T14:58:18;19.60;;;9.18;;
73729;SDS011;62036;48.128;16.458;2024-01-10T15:00:45;20.00;;;10.13;;
73729;SDS011;62036;48.128;16.458;2024-01-10T15:03:11;18.42;;;8.02;;
73729;SDS011;62036;48.128;16.458;2024-01-10T15:05:39;17.30;;;10.27;;
73729;SDS011;62036;48.128;16.458;2024-01-10T15:08:06;17.77;;;8.30;;
73729;SDS011;62036;48.128;16.458;2024-01-10T15:10:36;18.90;;;9.32;;
73729;SDS011;62036;48.128;16.458;2024-01-10T15:13:08;21.88;;;10.25;;
73729;SDS011;62036;48.128;16.458;2024-01-10T15:15:34;20.73;;;9.00;;
73729;SDS011;62036;48.128;16.458;2024-01-10T15:18:03;18.42;;;9.45;;
73729;SDS011;62036;48.128;16.458;2024-01-10T15:20:29;21.63;;;9.02;;
73729;SDS011;62036;48.128;16.458;2024-01-10T15:22:55;23.30;;;10.77;;
73729;SDS011;62036;48.128;16.458;2024-01-10T15:25:23;17.67;;;8.95;;
73729;SDS011;62036;48.128;16.458;2024-01-10T15:27:49;19.77;;;8.65;;
73729;SDS011;62036;48.128;16.458;2024-01-10T15:30:15;21.98;;;12.07;;
73729;SDS011;62036;48.128;16.458;2024-01-10T15:35:08;39.38;;;17.95;;